Station Historical Data
 
Daily Summary for April 22, 2018 Units:  English    Metric   Both
« Previous Day
Next Day »
Daily Weekly Monthly Yearly Custom
  Current: High: Low: Average:
Temperature: 58.1 °F TemperatureF °F 56.1 °F 58 °F
Dew Point: 56.7 °F DewpointF °F 39.3 °F 47.8 °F
Humidity: 95 % Humidity % 48 % 70 %
Wind Speed: 0.0 mph WindSpeedMPH mph 0.0 mph 0.9 mph
Wind Gust: 0.0 mph WindSpeedGustMPH mph - -
Wind:Calm - - ESE
Pressure: 30.13 in PressureIn in 30.11 in -
Precipitation: 0.55 in      
Historical Graphs
 
 
Tabular Data for April 22, 2018
Time Temperature Dew Point Pressure Wind Wind Speed Wind Gust Humidity Rainfall Rate (Hourly) solar Conditions
TemperatureF °F DewpointF °F PressureIn in Calm     Humidity % HourlyPrecipIn in SolarRadiationWatts/m^2 W/m2 Conditions
00:02 59.3 °F 39.6 °F 30.20 in SE 1.2 mph   48 % 0.00 in 0.0 W/m2 SCT
00:07 58.9 °F 39.8 °F 30.20 in Calm     49 % 0.00 in 0.0 W/m2 SCT
00:13 58.8 °F 39.7 °F 30.19 in Calm     49 % 0.00 in 0.0 W/m2 SCT
00:18 58.2 °F 40.1 °F 30.19 in Calm     51 % 0.00 in 0.0 W/m2 SCT
00:23 58.4 °F 39.3 °F 30.19 in Calm     49 % 0.00 in 0.0 W/m2 SCT
00:28 58.2 °F 39.6 °F 30.19 in Calm     50 % 0.00 in 0.0 W/m2 SCT
00:33 58.9 °F 39.8 °F 30.18 in SE 3.5 mph 3.5 mph 49 % 0.00 in 0.0 W/m2 SCT
00:38 59.4 °F 40.2 °F 30.18 in SE 1.2 mph 1.2 mph 49 % 0.00 in 0.0 W/m2 SCT
00:43 59.3 °F 41.2 °F 30.18 in East 1.2 mph   51 % 0.00 in 0.0 W/m2 SCT
00:48 58.3 °F 41.2 °F 30.18 in Calm     53 % 0.00 in 0.0 W/m2 SCT
00:53 58.6 °F 40.5 °F 30.18 in SE 1.2 mph 1.2 mph 51 % 0.00 in 0.0 W/m2 SCT
00:58 59.6 °F 40.4 °F 30.18 in SE 2.3 mph 2.3 mph 49 % 0.00 in 0.0 W/m2 SCT
01:03 60.2 °F 41.0 °F 30.18 in SE 2.3 mph 2.3 mph 49 % 0.00 in 0.0 W/m2 CLR
01:08 60.3 °F 40.5 °F 30.18 in SE 1.2 mph 1.2 mph 48 % 0.00 in 0.0 W/m2 CLR
01:13 60.6 °F 40.8 °F 30.18 in SE 2.3 mph 2.3 mph 48 % 0.00 in 0.0 W/m2 CLR
01:18 60.8 °F 41.0 °F 30.18 in SE 1.2 mph 1.2 mph 48 % 0.00 in 0.0 W/m2 CLR
01:23 61.0 °F 41.2 °F 30.17 in Calm     48 % 0.00 in 0.0 W/m2 CLR
01:28 60.3 °F 41.6 °F 30.17 in SE 1.2 mph 1.2 mph 50 % 0.00 in 0.0 W/m2 CLR
01:33 58.7 °F 41.1 °F 30.17 in ENE 2.3 mph 2.3 mph 52 % 0.00 in 0.0 W/m2 CLR
01:38 58.0 °F 41.0 °F 30.17 in Calm     53 % 0.00 in 0.0 W/m2 CLR
01:43 58.0 °F 41.0 °F 30.17 in Calm     53 % 0.00 in 0.0 W/m2 CLR
01:48 58.1 °F 41.5 °F 30.17 in Calm     54 % 0.00 in 0.0 W/m2 CLR
01:53 58.3 °F 41.2 °F 30.17 in Calm     53 % 0.00 in 0.0 W/m2 CLR
01:58 58.3 °F 41.7 °F 30.17 in Calm     54 % 0.00 in 0.0 W/m2 CLR
02:03 58.1 °F 41.5 °F 30.17 in Calm     54 % 0.00 in 0.0 W/m2 CLR
02:08 58.1 °F 41.5 °F 30.17 in Calm     54 % 0.00 in 0.0 W/m2 CLR
02:13 58.2 °F 41.6 °F 30.17 in Calm     54 % 0.00 in 0.0 W/m2 CLR
02:18 58.4 °F 41.8 °F 30.17 in Calm     54 % 0.00 in 0.0 W/m2 CLR
02:23 58.3 °F 42.2 °F 30.17 in Calm     55 % 0.00 in 0.0 W/m2 CLR
02:28 57.9 °F 41.8 °F 30.17 in Calm     55 % 0.00 in 0.0 W/m2 CLR
02:33 57.9 °F 41.8 °F 30.16 in Calm     55 % 0.00 in 0.0 W/m2 CLR
02:38 57.8 °F 42.2 °F 30.16 in Calm     56 % 0.00 in 0.0 W/m2 CLR
02:43 57.5 °F 42.4 °F 30.16 in Calm     57 % 0.00 in 0.0 W/m2 CLR
02:48 57.6 °F 42.5 °F 30.16 in Calm     57 % 0.00 in 0.0 W/m2 CLR
02:53 57.7 °F 42.6 °F 30.15 in Calm     57 % 0.00 in 0.0 W/m2 CLR
02:58 58.2 °F 43.0 °F 30.15 in Calm     57 % 0.00 in 0.0 W/m2 CLR
03:03 58.3 °F 42.7 °F 30.14 in Calm     56 % 0.00 in 0.0 W/m2 BKN
03:08 58.3 °F 43.1 °F 30.15 in ENE 2.3 mph 2.3 mph 57 % 0.00 in 0.0 W/m2 BKN
03:13 58.2 °F 43.0 °F 30.14 in ENE 1.2 mph 1.2 mph 57 % 0.00 in 0.0 W/m2 BKN
03:18 58.1 °F 43.4 °F 30.14 in ENE 1.2 mph 1.2 mph 58 % 0.00 in 0.0 W/m2 BKN
03:23 57.9 °F 43.2 °F 30.15 in ENE 1.2 mph 1.2 mph 58 % 0.00 in 0.0 W/m2 BKN
03:28 58.0 °F 43.3 °F 30.15 in Calm     58 % 0.00 in 0.0 W/m2 BKN
03:33 58.2 °F 43.0 °F 30.15 in Calm     57 % 0.00 in 0.0 W/m2 BKN
03:38 58.2 °F 43.0 °F 30.16 in Calm     57 % 0.00 in 0.0 W/m2 BKN
03:43 58.4 °F 42.8 °F 30.16 in Calm     56 % 0.00 in 0.0 W/m2 BKN
03:48 58.6 °F 42.9 °F 30.16 in Calm     56 % 0.00 in 0.0 W/m2 BKN
03:53 58.7 °F 43.0 °F 30.16 in Calm     56 % 0.00 in 0.0 W/m2 BKN
03:58 58.4 °F 43.7 °F 30.15 in Calm     58 % 0.00 in 0.0 W/m2 BKN
04:03 57.6 °F 43.4 °F 30.15 in Calm     59 % 0.00 in 0.0 W/m2 CLR
04:08 57.4 °F 44.1 °F 30.15 in Calm     61 % 0.00 in 0.0 W/m2 CLR
04:13 57.4 °F 44.1 °F 30.15 in Calm     61 % 0.00 in 0.0 W/m2 CLR
04:18 57.1 °F 43.8 °F 30.15 in Calm     61 % 0.00 in 0.0 W/m2 CLR
04:23 56.9 °F 44.0 °F 30.14 in Calm     62 % 0.00 in 0.0 W/m2 CLR
04:28 56.4 °F 44.4 °F 30.14 in Calm     64 % 0.00 in 0.0 W/m2 CLR
04:33 56.6 °F 44.1 °F 30.14 in Calm     63 % 0.00 in 0.0 W/m2 CLR
04:38 56.8 °F 43.9 °F 30.14 in Calm     62 % 0.00 in 0.0 W/m2 CLR
04:43 57.2 °F 43.9 °F 30.14 in Calm     61 % 0.00 in 0.0 W/m2 CLR
04:48 57.6 °F 43.8 °F 30.15 in Calm     60 % 0.00 in 0.0 W/m2 CLR
04:53 57.9 °F 43.7 °F 30.15 in Calm     59 % 0.00 in 0.0 W/m2 CLR
04:58 58.8 °F 44.0 °F 30.15 in Calm     58 % 0.00 in 0.0 W/m2 CLR
05:03 59.2 °F 44.4 °F 30.15 in Calm     58 % 0.00 in 0.0 W/m2 CLR
05:08 59.0 °F 43.8 °F 30.15 in Calm     57 % 0.00 in 0.0 W/m2 CLR
05:13 58.9 °F 43.7 °F 30.15 in Calm     57 % 0.00 in 0.0 W/m2 CLR
05:18 58.9 °F 43.7 °F 30.15 in Calm     57 % 0.00 in 0.0 W/m2 CLR
05:24 58.7 °F 43.5 °F 30.15 in Calm     57 % 0.00 in 0.0 W/m2 CLR
05:29 58.0 °F 43.7 °F 30.15 in ENE 2.3 mph 2.3 mph 59 % 0.00 in 0.0 W/m2 CLR
05:34 57.3 °F 43.5 °F 30.15 in ENE 1.2 mph 1.2 mph 60 % 0.00 in 0.0 W/m2 CLR
05:39 57.3 °F 43.5 °F 30.15 in Calm     60 % 0.00 in 0.0 W/m2 CLR
05:44 57.7 °F 43.9 °F 30.15 in Calm     60 % 0.00 in 0.0 W/m2 CLR
05:49 58.1 °F 43.8 °F 30.15 in Calm     59 % 0.00 in 0.0 W/m2 CLR
05:54 58.0 °F 43.7 °F 30.15 in ENE 1.2 mph 1.2 mph 59 % 0.00 in 0.0 W/m2 CLR
05:59 57.5 °F 44.1 °F 30.15 in ENE 2.3 mph 2.3 mph 61 % 0.00 in 0.0 W/m2 CLR
06:04 57.5 °F 44.1 °F 30.15 in ENE 2.3 mph 2.3 mph 61 % 0.00 in 0.0 W/m2 OVC
06:09 57.5 °F 44.1 °F 30.15 in Calm     61 % 0.00 in 0.0 W/m2 OVC
06:14 57.7 °F 43.9 °F 30.16 in Calm     60 % 0.00 in 0.0 W/m2 OVC
06:19 58.0 °F 44.2 °F 30.15 in Calm     60 % 0.00 in 5.0 W/m2 OVC
06:24 58.0 °F 44.2 °F 30.16 in Calm     60 % 0.00 in 7.0 W/m2 OVC
06:29 58.2 °F 43.9 °F 30.16 in Calm     59 % 0.00 in 9.0 W/m2 OVC
06:34 58.1 °F 44.3 °F 30.16 in Calm     60 % 0.00 in 11.0 W/m2 OVC
06:39 58.1 °F 44.3 °F 30.15 in Calm     60 % 0.00 in 14.0 W/m2 OVC
06:44 57.8 °F 44.4 °F 30.15 in ENE 3.5 mph 3.5 mph 61 % 0.00 in 16.0 W/m2 OVC
06:49 57.4 °F 44.5 °F 30.15 in ENE 2.3 mph 2.3 mph 62 % 0.00 in 16.0 W/m2 OVC
06:54 57.2 °F 45.1 °F 30.16 in Calm     64 % 0.00 in 19.0 W/m2 OVC
06:59 57.4 °F 45.3 °F 30.15 in Calm     64 % 0.00 in 19.0 W/m2 OVC
07:04 57.8 °F 45.7 °F 30.15 in Calm     64 % 0.00 in 12.0 W/m2 FEW
07:09 57.8 °F 46.5 °F 30.15 in Calm     66 % 0.00 in 11.0 W/m2 FEW
07:14 58.1 °F 47.2 °F 30.15 in Calm     67 % 0.00 in 11.0 W/m2 FEW
07:19 58.2 °F 46.9 °F 30.15 in Calm     66 % 0.00 in 11.0 W/m2 FEW
07:24 58.4 °F 47.9 °F 30.15 in ENE 1.2 mph   68 % 0.00 in 9.0 W/m2 FEW
07:29 58.1 °F 49.5 °F 30.15 in ENE 2.3 mph 2.3 mph 73 % 0.00 in 14.0 W/m2 FEW
07:34 56.9 °F 50.1 °F 30.15 in ENE 1.2 mph 1.2 mph 78 % 0.00 in 26.0 W/m2 FEW
07:39 56.3 °F 50.9 °F 30.14 in ENE 1.2 mph 1.2 mph 82 % 0.01 in 25.0 W/m2 RA
07:44 56.1 °F 50.3 °F 30.14 in ENE 1.2 mph   81 % 0.01 in 26.0 W/m2 RA
07:49 56.2 °F 50.4 °F 30.14 in Calm     81 % 0.01 in 35.0 W/m2 FEW
07:54 56.6 °F 50.5 °F 30.13 in Calm     80 % 0.01 in 37.0 W/m2 -RA
07:59 57.4 °F 51.6 °F 30.14 in Calm     81 % 0.01 in 35.0 W/m2 -RA
08:04 58.0 °F 51.9 °F 30.13 in Calm     80 % 0.01 in 44.0 W/m2 -RA
08:09 58.1 °F 52.3 °F 30.13 in Calm     81 % 0.01 in 40.0 W/m2 -RA
08:14 58.3 °F 52.2 °F 30.13 in Calm     80 % 0.01 in 42.0 W/m2 -RA
08:19 58.7 °F 52.2 °F 30.13 in Calm     79 % 0.01 in 42.0 W/m2 -RA
08:24 58.8 °F 52.6 °F 30.12 in Calm     80 % 0.01 in 42.0 W/m2 BKN
08:29 58.9 °F 52.7 °F 30.12 in Calm     80 % 0.01 in 44.0 W/m2 BKN
08:34 59.0 °F 53.2 °F 30.13 in Calm     81 % 0.01 in 42.0 W/m2 BKN
08:39 59.1 °F 52.9 °F 30.13 in Calm     80 % 0.00 in 47.0 W/m2 BKN
08:49 60.0 °F 53.5 °F 30.14 in Calm     79 % 0.00 in 58.0 W/m2 BKN
08:54 61.1 °F 53.5 °F 30.14 in SSE 1.0 mph   76 % 0.00 in 47.0 W/m2 BKN
08:59 60.9 °F 54.7 °F 30.15 in SSE 1.2 mph 1.2 mph 80 % 0.00 in 58.0 W/m2 BKN
09:04 59.9 °F 54.4 °F 30.15 in SSE 1.2 mph   82 % 0.00 in 84.0 W/m2 -RA
09:09 59.6 °F 54.4 °F 30.15 in SSE 1.0 mph 1.0 mph 83 % 0.00 in 74.0 W/m2 -RA
09:14 59.8 °F 54.3 °F 30.15 in Calm     82 % 0.00 in 63.0 W/m2 -RA
09:19 60.1 °F 54.9 °F 30.15 in SSE 1.2 mph 1.2 mph 83 % 0.00 in 65.0 W/m2 -RA
09:24 60.0 °F 55.2 °F 30.15 in SSE 2.3 mph 2.3 mph 84 % 0.00 in 58.0 W/m2 -RA
09:29 59.9 °F 55.1 °F 30.16 in SE 2.3 mph 2.3 mph 84 % 0.01 in 51.0 W/m2 -RA
09:34 59.4 °F 55.2 °F 30.16 in SE 1.2 mph   86 % 0.02 in 56.0 W/m2 -RA
09:39 59.0 °F 55.4 °F 30.16 in SE 1.2 mph 1.2 mph 88 % 0.03 in 49.0 W/m2 -RA
09:44 58.8 °F 55.9 °F 30.16 in SE 1.2 mph 1.2 mph 90 % 0.05 in 35.0 W/m2 -RA
09:49 58.6 °F 56.0 °F 30.15 in SE 1.2 mph 1.2 mph 91 % 0.06 in 40.0 W/m2 -RA
09:54 58.5 °F 56.2 °F 30.15 in Calm     92 % 0.08 in 42.0 W/m2 +RA
09:59 58.4 °F 56.4 °F 30.15 in NE 3.5 mph 3.5 mph 93 % 0.09 in 44.0 W/m2 +RA
10:04 58.4 °F 56.7 °F 30.15 in NE 1.2 mph   94 % 0.10 in 53.0 W/m2 RA
10:09 58.4 °F 56.7 °F 30.15 in Calm     94 % 0.13 in 62.0 W/m2 RA
10:14 58.5 °F 57.1 °F 30.15 in NE 1.2 mph   95 % 0.14 in 72.0 W/m2 RA
10:19 58.5 °F 57.1 °F 30.15 in Calm     95 % 0.16 in 67.0 W/m2 RA
10:25 58.4 °F 57.0 °F 30.14 in NE 1.2 mph 1.2 mph 95 % 0.17 in 58.0 W/m2 RA
10:30 58.4 °F 57.0 °F 30.14 in Calm     95 % 0.17 in 74.0 W/m2 RA
10:35 58.4 °F 57.0 °F 30.14 in ENE 2.3 mph 2.3 mph 95 % 0.16 in 88.0 W/m2 RA
10:40 58.4 °F 57.3 °F 30.14 in East 3.5 mph 3.5 mph 96 % 0.16 in 79.0 W/m2 RA
10:45 58.5 °F 57.4 °F 30.14 in ENE 1.2 mph 1.2 mph 96 % 0.15 in 81.0 W/m2 RA
10:50 58.6 °F 57.5 °F 30.14 in Calm   0.1 mph 96 % 0.16 in 81.0 W/m2 RA
10:55 58.6 °F 57.5 °F 30.14 in NE 4.6 mph 4.6 mph 96 % 0.15 in 84.0 W/m2 RA
11:00 58.7 °F 57.6 °F 30.13 in ENE 2.3 mph 2.3 mph 96 % 0.15 in 84.0 W/m2 RA
11:05 58.7 °F 57.6 °F 30.12 in NE 2.3 mph 2.3 mph 96 % 0.14 in 79.0 W/m2 RA
11:10 58.7 °F 57.6 °F 30.13 in ENE 3.5 mph 3.5 mph 96 % 0.13 in 69.0 W/m2 RA
11:15 58.6 °F 57.5 °F 30.13 in SE 2.3 mph 2.3 mph 96 % 0.12 in 72.0 W/m2 RA
11:20 58.6 °F 57.5 °F 30.13 in SE 3.5 mph 3.5 mph 96 % 0.12 in 74.0 W/m2 RA
11:25 58.7 °F 57.6 °F 30.12 in SE 3.5 mph 3.5 mph 96 % 0.12 in 62.0 W/m2 RA
11:30 58.7 °F 57.6 °F 30.11 in NE 1.2 mph 1.2 mph 96 % 0.12 in 56.0 W/m2 RA
11:35 58.7 °F 57.6 °F 30.12 in ENE 3.5 mph 3.5 mph 96 % 0.11 in 70.0 W/m2 RA
11:40 58.6 °F 57.5 °F 30.12 in NE 2.3 mph 2.3 mph 96 % 0.11 in 74.0 W/m2 RA
11:45 58.7 °F 57.6 °F 30.12 in SE 2.3 mph 2.3 mph 96 % 0.12 in 76.0 W/m2 RA
11:50 58.7 °F 57.3 °F 30.13 in SE 3.5 mph 3.5 mph 95 % 0.11 in 69.0 W/m2 RA
11:55 58.7 °F 57.3 °F 30.13 in SE 3.5 mph 3.5 mph 95 % 0.10 in 58.0 W/m2 RA
12:00 58.7 °F 57.3 °F 30.13 in ESE 3.5 mph 3.5 mph 95 % 0.10 in 46.0 W/m2 RA
12:05 58.6 °F 57.2 °F 30.13 in SE 3.5 mph 3.5 mph 95 % 0.11 in 51.0 W/m2 -RA
12:10 58.5 °F 57.1 °F 30.14 in SE 3.5 mph 3.5 mph 95 % 0.10 in 46.0 W/m2 -RA
12:15 58.5 °F 57.1 °F 30.13 in SW 3.5 mph 3.5 mph 95 % 0.11 in 51.0 W/m2 -RA
12:20 58.4 °F 57.0 °F 30.13 in SE 3.5 mph 3.5 mph 95 % 0.12 in 39.0 W/m2 -RA
12:25 58.4 °F 57.0 °F 30.14 in SSE 3.5 mph 3.5 mph 95 % 0.14 in 30.0 W/m2 RA
12:30 58.2 °F 56.8 °F 30.13 in NE 1.2 mph 1.2 mph 95 % 0.15 in 32.0 W/m2 RA
12:35 58.2 °F 56.8 °F 30.12 in NE 1.2 mph 1.2 mph 95 % 0.18 in 32.0 W/m2 RA
12:40 58.1 °F 56.7 °F 30.13 in SSE 3.5 mph 3.5 mph 95 % 0.19 in 19.0 W/m2 RA
12:45 58.1 °F 56.7 °F 30.13 in Calm     95 % 0.20 in 21.0 W/m2 RA
12:50 58.1 °F 56.7 °F 30.13 in Calm     95 % 0.21 in 25.0 W/m2 RA
Murfreesboro Weather Live
Compliments of Weather Underground - 1.5 mb